createdAt,value
2019-04-27T00:00:47.465Z,11.97
2019-04-27T00:03:18.568Z,11.91
2019-04-27T00:05:49.682Z,11.87
2019-04-27T00:08:24.044Z,11.85
2019-04-27T00:10:59.774Z,11.82
2019-04-27T00:13:29.910Z,11.83
2019-04-27T00:16:11.068Z,11.84
2019-04-27T00:18:45.164Z,11.84
2019-04-27T00:21:21.394Z,11.86
2019-04-27T00:23:50.863Z,11.87
2019-04-27T00:26:20.298Z,11.84
2019-04-27T00:28:49.762Z,11.83
2019-04-27T00:31:19.243Z,11.83
2019-04-27T00:33:49.868Z,11.83
2019-04-27T00:36:32.916Z,11.85
2019-04-27T00:39:09.784Z,11.88
2019-04-27T00:41:40.883Z,11.89
2019-04-27T00:44:10.608Z,11.89
2019-04-27T00:46:40.083Z,11.88
2019-04-27T00:49:09.614Z,11.86
2019-04-27T00:51:39.150Z,11.85
2019-04-27T00:54:08.623Z,11.84
2019-04-27T00:56:48.729Z,11.82
2019-04-27T00:59:36.071Z,11.80
2019-04-27T01:02:16.282Z,11.76
2019-04-27T01:04:45.761Z,11.72
2019-04-27T01:07:15.269Z,11.70
2019-04-27T01:09:44.923Z,11.68
2019-04-27T01:12:15.226Z,11.67
2019-04-27T01:14:45.125Z,11.65
2019-04-27T01:17:15.745Z,11.65
2019-04-27T01:19:45.281Z,11.63
2019-04-27T01:22:14.884Z,11.64
2019-04-27T01:24:44.360Z,11.65
2019-04-27T01:27:32.008Z,11.63
2019-04-27T01:30:01.748Z,11.64
2019-04-27T01:32:33.871Z,11.64
2019-04-27T01:35:02.518Z,11.61
2019-04-27T01:37:33.026Z,11.57
2019-04-27T01:40:03.669Z,11.55
2019-04-27T01:42:33.198Z,11.53
2019-04-27T01:45:02.751Z,11.48
2019-04-27T01:47:32.505Z,11.47
2019-04-27T01:50:01.993Z,11.43
2019-04-27T01:52:31.436Z,11.41
2019-04-27T01:55:00.904Z,11.39
2019-04-27T01:57:30.604Z,11.37
2019-04-27T02:00:00.071Z,11.35
2019-04-27T02:02:31.221Z,11.29
2019-04-27T02:05:19.033Z,11.23
2019-04-27T02:07:49.122Z,11.20
2019-04-27T02:10:19.299Z,11.15
2019-04-27T02:12:48.896Z,11.11
2019-04-27T02:15:19.134Z,11.08
2019-04-27T02:17:50.809Z,11.05
2019-04-27T02:20:19.947Z,11.03
2019-04-27T02:22:50.750Z,11.00
2019-04-27T02:25:21.123Z,10.98
2019-04-27T02:27:59.356Z,10.95
2019-04-27T02:30:45.618Z,10.92
2019-04-27T02:33:16.703Z,10.89
2019-04-27T02:35:46.259Z,10.86
2019-04-27T02:38:15.702Z,10.85
2019-04-27T02:40:51.955Z,10.82
2019-04-27T02:43:26.443Z,10.79
2019-04-27T02:45:55.957Z,10.75
2019-04-27T02:48:25.394Z,10.75
2019-04-27T02:51:02.263Z,10.74
2019-04-27T02:53:49.873Z,10.72
2019-04-27T02:56:20.225Z,10.72
2019-04-27T02:58:49.909Z,10.71
2019-04-27T03:01:20.345Z,10.69
2019-04-27T03:03:50.358Z,10.68
2019-04-27T03:06:20.127Z,10.68
2019-04-27T03:08:53.956Z,10.68
2019-04-27T03:11:23.430Z,10.70
2019-04-27T03:14:15.104Z,10.74
2019-04-27T03:17:00.183Z,10.79
2019-04-27T03:19:31.239Z,10.83
2019-04-27T03:22:02.357Z,10.86
2019-04-27T03:24:49.987Z,10.83
2019-04-27T03:27:21.166Z,10.83
2019-04-27T03:29:50.719Z,10.82
2019-04-27T03:32:22.676Z,10.78
2019-04-27T03:34:52.548Z,10.78
2019-04-27T03:37:22.372Z,10.75
2019-04-27T03:39:51.951Z,10.72
2019-04-27T03:42:21.864Z,10.68
2019-04-27T03:44:51.303Z,10.66
2019-04-27T03:47:20.770Z,10.64
2019-04-27T03:49:50.883Z,10.60
2019-04-27T03:52:23.165Z,10.59
2019-04-27T03:54:54.241Z,10.61
2019-04-27T03:57:34.695Z,10.62
2019-04-27T04:00:10.111Z,10.64
2019-04-27T04:02:40.448Z,10.67
2019-04-27T04:05:10.273Z,10.68
2019-04-27T04:07:40.505Z,10.68
2019-04-27T04:10:10.808Z,10.72
2019-04-27T04:12:56.409Z,10.71
2019-04-27T04:15:35.516Z,10.70
2019-04-27T04:18:05.245Z,10.72
2019-04-27T04:20:34.700Z,10.71
2019-04-27T04:23:04.237Z,10.71
2019-04-27T04:25:33.710Z,10.68
2019-04-27T04:28:03.162Z,10.66
2019-04-27T04:30:32.601Z,10.64
2019-04-27T04:33:02.104Z,10.63
2019-04-27T04:35:33.365Z,10.62
2019-04-27T04:38:03.049Z,10.60
2019-04-27T04:40:43.794Z,10.59
2019-04-27T04:43:29.422Z,10.58
2019-04-27T04:46:19.503Z,10.55
2019-04-27T04:48:50.167Z,10.55
2019-04-27T04:51:20.124Z,10.55
2019-04-27T04:53:51.878Z,10.59
2019-04-27T04:56:21.162Z,10.62
2019-04-27T04:58:50.634Z,10.67
2019-04-27T05:01:20.146Z,10.70
2019-04-27T05:03:49.621Z,10.73
2019-04-27T05:06:19.093Z,10.77
2019-04-27T05:08:49.374Z,10.80
2019-04-27T05:11:19.574Z,10.83
2019-04-27T05:13:49.479Z,10.93
2019-04-27T05:16:19.085Z,11.02
2019-04-27T05:18:49.562Z,11.09
2019-04-27T05:21:31.245Z,11.14
2019-04-27T05:24:02.155Z,11.19
2019-04-27T05:26:31.798Z,11.25
2019-04-27T05:29:03.301Z,11.32
2019-04-27T05:31:32.737Z,11.34
2019-04-27T05:34:02.207Z,11.38
2019-04-27T05:36:32.751Z,11.43
2019-04-27T05:39:02.240Z,11.47
2019-04-27T05:41:37.384Z,11.54
2019-04-27T05:44:07.636Z,11.58
2019-04-27T05:46:41.122Z,11.66
2019-04-27T05:49:21.237Z,11.70
2019-04-27T05:51:51.688Z,11.75
2019-04-27T05:54:21.157Z,11.79
2019-04-27T05:56:50.606Z,11.84
2019-04-27T05:59:20.084Z,11.94
2019-04-27T06:01:49.558Z,12.03
2019-04-27T06:04:19.416Z,12.07
2019-04-27T06:06:49.910Z,12.13
2019-04-27T06:09:19.658Z,12.21
2019-04-27T06:11:50.668Z,12.29
2019-04-27T06:14:20.362Z,12.37
2019-04-27T06:16:51.271Z,12.46
2019-04-27T06:19:22.214Z,12.55
2019-04-27T06:21:52.679Z,12.64
2019-04-27T06:24:26.637Z,12.73
2019-04-27T06:26:56.174Z,12.81
2019-04-27T06:29:25.663Z,12.87
2019-04-27T06:31:55.112Z,12.93
2019-04-27T06:34:24.760Z,13.00
2019-04-27T06:36:54.249Z,13.08
2019-04-27T06:39:23.699Z,13.17
2019-04-27T06:41:53.182Z,13.24
2019-04-27T06:44:22.669Z,13.28
2019-04-27T06:46:52.121Z,13.25
2019-04-27T06:49:21.703Z,13.28
2019-04-27T06:51:51.178Z,13.36
2019-04-27T06:54:21.432Z,13.47
2019-04-27T06:56:51.078Z,13.56
2019-04-27T06:59:20.543Z,13.63
2019-04-27T07:01:50.021Z,13.74
2019-04-27T07:04:19.840Z,13.89
2019-04-27T07:06:54.186Z,14.02
2019-04-27T07:09:20.492Z,14.12
2019-04-27T07:11:49.939Z,14.24
2019-04-27T07:14:19.828Z,14.30
2019-04-27T07:16:50.785Z,14.36
2019-04-27T07:19:21.414Z,14.47
2019-04-27T07:21:50.885Z,14.60
2019-04-27T07:24:20.363Z,14.69
2019-04-27T07:26:49.805Z,14.74
2019-04-27T07:29:19.661Z,14.82
2019-04-27T07:31:49.729Z,14.87
2019-04-27T07:34:19.231Z,14.95
2019-04-27T07:36:49.231Z,15.05
2019-04-27T07:39:19.395Z,15.15
2019-04-27T07:41:49.004Z,15.24
2019-04-27T07:44:22.844Z,15.28
2019-04-27T07:47:10.445Z,15.28
2019-04-27T07:49:39.898Z,15.34
2019-04-27T07:52:09.321Z,15.45
2019-04-27T07:54:40.905Z,15.52
2019-04-27T07:57:09.975Z,15.61
2019-04-27T07:59:41.931Z,15.67
2019-04-27T08:02:11.680Z,15.74
2019-04-27T08:04:41.122Z,15.78
2019-04-27T08:07:10.571Z,15.80
2019-04-27T08:09:40.109Z,15.80
2019-04-27T08:12:10.861Z,15.87
2019-04-27T08:14:40.618Z,15.92
2019-04-27T08:17:10.053Z,15.93
2019-04-27T08:19:39.653Z,16.00
2019-04-27T08:22:09.676Z,16.11
2019-04-27T08:24:40.289Z,16.12
2019-04-27T08:27:14.711Z,16.17
2019-04-27T08:29:48.847Z,16.27
2019-04-27T08:32:20.015Z,16.33
2019-04-27T08:34:49.742Z,16.40
2019-04-27T08:37:19.218Z,16.48
2019-04-27T08:39:49.582Z,16.63
2019-04-27T08:42:19.819Z,16.77
2019-04-27T08:44:49.726Z,16.90
2019-04-27T08:47:19.578Z,16.98
2019-04-27T08:49:49.357Z,17.07
2019-04-27T08:52:19.393Z,17.09
2019-04-27T08:54:49.311Z,17.08
2019-04-27T08:57:20.101Z,17.13
2019-04-27T08:59:51.081Z,17.19
2019-04-27T09:02:20.739Z,17.28
2019-04-27T09:04:50.178Z,17.38
2019-04-27T09:07:33.170Z,17.45
2019-04-27T09:10:13.279Z,17.52
2019-04-27T09:12:53.296Z,17.64
2019-04-27T09:15:36.286Z,17.66
2019-04-27T09:18:06.602Z,17.69
2019-04-27T09:20:38.971Z,17.81
2019-04-27T09:23:09.844Z,17.76
2019-04-27T09:25:39.706Z,17.75
2019-04-27T09:28:09.284Z,17.82
2019-04-27T09:30:39.395Z,17.89
2019-04-27T09:33:08.975Z,17.92
2019-04-27T09:35:38.439Z,17.79
2019-04-27T09:38:07.885Z,18.02
2019-04-27T09:40:37.496Z,18.08
2019-04-27T09:43:07.572Z,18.40
2019-04-27T09:45:37.273Z,18.71
2019-04-27T09:48:08.238Z,18.95
2019-04-27T09:50:37.704Z,19.23
2019-04-27T09:53:07.139Z,19.30
2019-04-27T09:55:37.013Z,19.51
2019-04-27T09:58:07.396Z,19.67
2019-04-27T10:00:37.507Z,19.74
2019-04-27T10:03:07.042Z,20.06
2019-04-27T10:05:36.888Z,20.19
2019-04-27T10:08:07.644Z,20.15
2019-04-27T10:10:37.311Z,19.98
2019-04-27T10:13:07.308Z,19.98
2019-04-27T10:15:36.790Z,19.92
2019-04-27T10:18:06.312Z,19.88
2019-04-27T10:20:40.435Z,19.82
2019-04-27T10:23:07.194Z,19.74
2019-04-27T10:25:37.480Z,19.95
2019-04-27T10:28:07.155Z,20.03
2019-04-27T10:30:36.657Z,19.92
2019-04-27T10:33:08.160Z,19.61
2019-04-27T10:35:37.314Z,19.64
2019-04-27T10:38:06.909Z,19.62
2019-04-27T10:40:38.070Z,19.70
2019-04-27T10:43:07.704Z,19.77
2019-04-27T10:45:37.864Z,19.75
2019-04-27T10:48:07.635Z,19.78
2019-04-27T10:50:37.110Z,19.67
2019-04-27T10:53:07.081Z,19.48
2019-04-27T10:55:37.625Z,19.64
2019-04-27T10:58:07.512Z,19.70
2019-04-27T11:00:41.507Z,19.61
2019-04-27T11:03:12.274Z,19.59
2019-04-27T11:05:59.906Z,19.69
2019-04-27T11:08:29.334Z,19.87
2019-04-27T11:10:58.814Z,19.73
2019-04-27T11:13:28.248Z,19.69
2019-04-27T11:15:57.704Z,19.89
2019-04-27T11:18:27.134Z,20.11
2019-04-27T11:20:56.801Z,20.15
2019-04-27T11:23:26.470Z,20.26
2019-04-27T11:25:55.923Z,20.20
2019-04-27T11:28:26.430Z,20.48
2019-04-27T11:30:55.897Z,20.45
2019-04-27T11:33:26.349Z,20.21
2019-04-27T11:35:58.545Z,20.43
2019-04-27T11:38:27.978Z,20.60
2019-04-27T11:40:57.484Z,20.68
2019-04-27T11:43:26.940Z,20.71
2019-04-27T11:45:56.406Z,20.91
2019-04-27T11:48:26.324Z,20.85
2019-04-27T11:50:56.120Z,20.87
2019-04-27T11:53:26.750Z,20.84
2019-04-27T11:55:56.217Z,20.92
2019-04-27T11:58:26.548Z,20.65
2019-04-27T12:00:56.165Z,20.43
2019-04-27T12:03:25.771Z,20.39
2019-04-27T12:06:00.051Z,20.33
2019-04-27T12:08:27.518Z,20.23
2019-04-27T12:10:56.999Z,20.33
2019-04-27T12:13:26.420Z,20.51
2019-04-27T12:15:55.879Z,20.53
2019-04-27T12:18:25.355Z,20.52
2019-04-27T12:20:55.787Z,20.51
2019-04-27T12:23:33.731Z,20.47
2019-04-27T12:25:56.463Z,20.28
2019-04-27T12:28:27.576Z,20.25
2019-04-27T12:30:58.692Z,20.37
2019-04-27T12:33:28.227Z,20.31
2019-04-27T12:35:57.782Z,20.19
2019-04-27T12:38:28.283Z,20.16
2019-04-27T12:40:57.899Z,20.18
2019-04-27T12:43:27.357Z,20.42
2019-04-27T12:45:56.811Z,20.25
2019-04-27T12:48:26.352Z,20.09
2019-04-27T12:50:56.411Z,20.42
2019-04-27T12:53:27.585Z,20.36
2019-04-27T12:56:17.046Z,20.14
2019-04-27T12:58:53.968Z,19.95
2019-04-27T13:01:25.845Z,19.69
2019-04-27T13:03:58.883Z,19.32
2019-04-27T13:06:26.590Z,18.96
2019-04-27T13:08:56.124Z,18.68
2019-04-27T13:11:26.698Z,18.42
2019-04-27T13:13:57.690Z,18.22
2019-04-27T13:16:30.338Z,18.01
2019-04-27T13:18:58.453Z,17.90
2019-04-27T13:21:27.963Z,17.93
2019-04-27T13:24:04.106Z,18.14
2019-04-27T13:26:29.911Z,18.35
2019-04-27T13:28:59.667Z,18.63
2019-04-27T13:31:29.144Z,18.72
2019-04-27T13:33:58.604Z,18.74
2019-04-27T13:36:28.070Z,18.77
2019-04-27T13:38:57.668Z,18.81
2019-04-27T13:41:32.634Z,18.80
2019-04-27T13:43:58.386Z,18.77
2019-04-27T13:46:29.474Z,18.65
2019-04-27T13:49:09.833Z,18.58
2019-04-27T13:51:41.001Z,18.54
2019-04-27T13:54:19.669Z,18.49
2019-04-27T13:56:41.691Z,18.49
2019-04-27T13:59:12.797Z,18.40
2019-04-27T14:01:42.319Z,18.33
2019-04-27T14:04:11.786Z,18.25
2019-04-27T14:06:42.054Z,18.11
2019-04-27T14:09:12.775Z,18.11
2019-04-27T14:11:42.801Z,18.16
2019-04-27T14:14:12.258Z,18.17
2019-04-27T14:16:43.820Z,18.17
2019-04-27T14:19:12.935Z,18.15
2019-04-27T14:21:42.401Z,18.11
2019-04-27T14:24:11.841Z,17.99
2019-04-27T14:26:41.431Z,17.92
2019-04-27T14:29:10.904Z,17.81
2019-04-27T14:31:40.377Z,17.64
2019-04-27T14:34:09.816Z,17.50
2019-04-27T14:36:40.561Z,17.47
2019-04-27T14:39:12.680Z,17.42
2019-04-27T14:41:42.277Z,17.36
2019-04-27T14:44:11.806Z,17.26
2019-04-27T14:46:42.206Z,17.00
2019-04-27T14:49:11.686Z,16.84
2019-04-27T14:51:41.146Z,16.75
2019-04-27T14:54:10.612Z,16.68
2019-04-27T14:56:40.270Z,16.71
2019-04-27T14:59:10.938Z,16.78
2019-04-27T15:01:41.506Z,16.79
2019-04-27T15:04:11.013Z,16.68
2019-04-27T15:06:40.506Z,16.61
2019-04-27T15:09:13.349Z,16.56
2019-04-27T15:11:41.629Z,16.46
2019-04-27T15:14:11.106Z,16.34
2019-04-27T15:16:42.650Z,16.27
2019-04-27T15:19:17.584Z,16.20
2019-04-27T15:21:56.430Z,16.11
2019-04-27T15:24:15.661Z,15.92
2019-04-27T15:26:45.442Z,15.76
2019-04-27T15:29:20.515Z,15.61
2019-04-27T15:31:49.589Z,15.48
2019-04-27T15:34:35.472Z,15.37
2019-04-27T15:37:11.456Z,15.31
2019-04-27T15:40:04.014Z,15.32
2019-04-27T15:42:33.055Z,15.32
2019-04-27T15:45:02.681Z,15.29
2019-04-27T15:47:33.713Z,15.27
2019-04-27T15:50:04.259Z,15.23
2019-04-27T15:52:34.791Z,15.13
2019-04-27T15:55:11.223Z,15.07
2019-04-27T15:57:38.209Z,14.99
2019-04-27T16:00:17.237Z,14.85
2019-04-27T16:02:44.483Z,14.72
2019-04-27T16:05:16.753Z,14.58
2019-04-27T16:07:44.951Z,14.50
2019-04-27T16:10:17.714Z,14.37
2019-04-27T16:13:05.466Z,14.29
2019-04-27T16:15:18.517Z,14.25
2019-04-27T16:17:53.232Z,14.17
2019-04-27T16:20:28.879Z,14.09
2019-04-27T16:22:50.498Z,14.04
2019-04-27T16:25:23.531Z,14.03
2019-04-27T16:27:51.107Z,13.95
2019-04-27T16:30:20.733Z,13.89
2019-04-27T16:32:50.218Z,13.88
2019-04-27T16:35:23.001Z,13.84
2019-04-27T16:38:00.109Z,13.82
2019-04-27T16:40:30.126Z,13.84
2019-04-27T16:43:00.912Z,13.84
2019-04-27T16:45:30.592Z,13.90
2019-04-27T16:48:02.022Z,13.97
2019-04-27T16:50:32.569Z,14.03
2019-04-27T16:53:02.038Z,13.95
2019-04-27T16:55:34.093Z,13.87
2019-04-27T16:58:02.713Z,13.68
2019-04-27T17:00:33.436Z,13.50
2019-04-27T17:03:05.082Z,13.28
2019-04-27T17:05:34.784Z,13.09
2019-04-27T17:08:04.535Z,12.85
2019-04-27T17:10:34.067Z,12.55
2019-04-27T17:13:06.132Z,12.26
2019-04-27T17:15:53.696Z,12.01
2019-04-27T17:18:25.525Z,11.86
2019-04-27T17:21:00.115Z,11.61
2019-04-27T17:23:31.110Z,11.47
2019-04-27T17:26:04.454Z,11.31
2019-04-27T17:28:50.925Z,11.25
2019-04-27T17:31:22.250Z,11.08
2019-04-27T17:33:56.054Z,10.94
2019-04-27T17:36:25.658Z,10.80
2019-04-27T17:38:55.094Z,10.67
2019-04-27T17:41:24.625Z,10.67
2019-04-27T17:43:54.166Z,10.65
2019-04-27T17:46:23.704Z,10.66
2019-04-27T17:48:53.212Z,10.66
2019-04-27T17:51:22.691Z,10.65
2019-04-27T17:53:52.257Z,10.69
2019-04-27T17:56:33.409Z,10.65
2019-04-27T17:58:52.873Z,10.62
2019-04-27T18:01:29.261Z,10.59
2019-04-27T18:04:00.179Z,10.60
2019-04-27T18:06:27.820Z,10.59
2019-04-27T18:09:00.840Z,10.60
2019-04-27T18:11:28.797Z,10.59
2019-04-27T18:14:00.356Z,10.58
2019-04-27T18:16:33.953Z,10.57
2019-04-27T18:19:11.952Z,10.57
2019-04-27T18:21:43.447Z,10.59
2019-04-27T18:24:18.601Z,10.61
2019-04-27T18:27:00.483Z,10.64
2019-04-27T18:29:30.753Z,10.68
2019-04-27T18:31:58.286Z,10.66
2019-04-27T18:34:28.643Z,10.65
2019-04-27T18:36:58.286Z,10.64
2019-04-27T18:39:27.729Z,10.65
2019-04-27T18:41:58.518Z,10.65
2019-04-27T18:44:31.760Z,10.65
2019-04-27T18:47:02.276Z,10.67
2019-04-27T18:49:35.719Z,10.68
2019-04-27T18:52:23.269Z,10.71
2019-04-27T18:54:52.702Z,10.71
2019-04-27T18:57:22.155Z,10.75
2019-04-27T18:59:51.590Z,10.73
2019-04-27T19:02:21.093Z,10.74
2019-04-27T19:04:50.523Z,10.75
2019-04-27T19:07:20.097Z,10.68
2019-04-27T19:09:49.695Z,10.60
2019-04-27T19:12:20.541Z,10.60
2019-04-27T19:14:50.102Z,10.62
2019-04-27T19:17:20.021Z,10.60
2019-04-27T19:19:50.704Z,10.63
2019-04-27T19:22:20.222Z,10.67
2019-04-27T19:24:49.685Z,10.70
2019-04-27T19:27:23.363Z,10.71
2019-04-27T19:29:58.875Z,10.72
2019-04-27T19:32:29.238Z,10.71
2019-04-27T19:34:59.335Z,10.69
2019-04-27T19:37:29.011Z,10.67
2019-04-27T19:39:58.544Z,10.63
2019-04-27T19:42:28.644Z,10.62
2019-04-27T19:44:58.207Z,10.61
2019-04-27T19:47:27.671Z,10.61
2019-04-27T19:49:57.108Z,10.61
2019-04-27T19:52:28.237Z,10.62
2019-04-27T19:54:58.532Z,10.65
2019-04-27T19:57:36.354Z,10.66
2019-04-27T20:00:03.998Z,10.66
2019-04-27T20:02:34.596Z,10.69
2019-04-27T20:05:06.348Z,10.71
2019-04-27T20:07:37.947Z,10.73
2019-04-27T20:10:08.804Z,10.77
2019-04-27T20:12:41.114Z,10.75
2019-04-27T20:15:11.512Z,10.77
2019-04-27T20:17:41.004Z,10.77
2019-04-27T20:20:10.928Z,10.78
2019-04-27T20:22:40.360Z,10.77
2019-04-27T20:25:11.238Z,10.75
2019-04-27T20:27:46.831Z,10.75
2019-04-27T20:30:13.931Z,10.75
2019-04-27T20:32:44.763Z,10.72
2019-04-27T20:35:14.204Z,10.74
2019-04-27T20:37:43.803Z,10.76
2019-04-27T20:40:14.330Z,10.77
2019-04-27T20:42:43.869Z,10.79
2019-04-27T20:45:13.455Z,10.83
2019-04-27T20:47:42.902Z,10.85
2019-04-27T20:50:12.833Z,10.81
2019-04-27T20:52:44.013Z,10.80
2019-04-27T20:55:13.564Z,10.78
2019-04-27T20:57:42.991Z,10.78
2019-04-27T21:00:14.182Z,10.76
2019-04-27T21:02:56.113Z,10.75
2019-04-27T21:05:40.968Z,10.75
2019-04-27T21:08:11.990Z,10.75
2019-04-27T21:10:41.457Z,10.74
2019-04-27T21:13:11.326Z,10.73
2019-04-27T21:15:41.897Z,10.70
2019-04-27T21:18:12.615Z,10.67
2019-04-27T21:20:42.132Z,10.67
2019-04-27T21:23:12.183Z,10.68
2019-04-27T21:25:42.243Z,10.64
2019-04-27T21:28:18.563Z,10.57
2019-04-27T21:30:43.062Z,10.52
2019-04-27T21:33:12.498Z,10.49
2019-04-27T21:35:42.145Z,10.48
2019-04-27T21:38:11.755Z,10.46
2019-04-27T21:40:41.216Z,10.47
2019-04-27T21:43:11.359Z,10.49
2019-04-27T21:45:42.015Z,10.50
2019-04-27T21:48:11.653Z,10.53
2019-04-27T21:50:41.402Z,10.56
2019-04-27T21:53:12.574Z,10.57
2019-04-27T21:55:42.276Z,10.56
2019-04-27T21:58:11.804Z,10.54
2019-04-27T22:00:43.165Z,10.55
2019-04-27T22:03:16.027Z,10.54
2019-04-27T22:05:46.578Z,10.50
2019-04-27T22:08:16.004Z,10.48
2019-04-27T22:10:45.470Z,10.46
2019-04-27T22:13:14.930Z,10.43
2019-04-27T22:15:44.536Z,10.45
2019-04-27T22:18:13.972Z,10.45
2019-04-27T22:20:43.473Z,10.44
2019-04-27T22:23:22.973Z,10.42
2019-04-27T22:25:54.306Z,10.40
2019-04-27T22:28:22.763Z,10.41
2019-04-27T22:30:52.227Z,10.41
2019-04-27T22:33:21.666Z,10.41
2019-04-27T22:35:51.749Z,10.40
2019-04-27T22:38:21.340Z,10.41
2019-04-27T22:41:08.575Z,10.40
2019-04-27T22:43:56.269Z,10.40
2019-04-27T22:46:27.441Z,10.43
2019-04-27T22:48:56.922Z,10.42
2019-04-27T22:51:26.398Z,10.40
2019-04-27T22:53:55.833Z,10.37
2019-04-27T22:56:25.304Z,10.39
2019-04-27T22:59:12.549Z,10.41
2019-04-27T23:01:52.729Z,10.43
2019-04-27T23:04:41.210Z,10.49
2019-04-27T23:07:11.185Z,10.49
2019-04-27T23:09:42.785Z,10.49
2019-04-27T23:12:13.022Z,10.45
2019-04-27T23:14:42.458Z,10.46
2019-04-27T23:17:29.015Z,10.44
2019-04-27T23:19:58.452Z,10.44
2019-04-27T23:22:27.925Z,10.47
2019-04-27T23:24:57.349Z,10.47
2019-04-27T23:27:26.819Z,10.47
2019-04-27T23:29:56.263Z,10.49
2019-04-27T23:32:31.658Z,10.49
2019-04-27T23:35:12.937Z,10.47
2019-04-27T23:37:42.414Z,10.47
2019-04-27T23:40:13.882Z,10.51
2019-04-27T23:42:43.379Z,10.49
2019-04-27T23:45:14.114Z,10.49
2019-04-27T23:47:43.602Z,10.47
2019-04-27T23:50:14.514Z,10.45
2019-04-27T23:53:01.920Z,10.44
2019-04-27T23:55:33.312Z,10.44
2019-04-27T23:58:02.980Z,10.43
